Time;durP1;ratioP1;P1;durP2;ratioP2;P2;SDS_P1;SDS_P2;PMS_P1;PMS_P2;Temp;Humidity;BMP_temperature;BMP_pressure;BME280_temperature;BME280_humidity;BME280_pressure;Samples;Min_cycle;Max_cycle;Signal;HPM_P1;HPM_P2
2022/05/05 00:02:10;;;;;;;13.63;8.95;;;14.20;99.90;;;;;;5098298;28;20032;-64
2022/05/05 00:04:35;;;;;;;10.93;8.95;;;14.30;99.90;;;;;;5098376;28;20044;-64
2022/05/05 00:07:03;;;;;;;11.38;9.68;;;14.20;99.90;;;;;;5098197;28;20366;-64
2022/05/05 00:09:30;;;;;;;15.13;9.25;;;14.10;99.90;;;;;;5098217;28;20353;-64
2022/05/05 00:14:41;;;;;;;13.68;9.75;;;14.00;99.90;;;;;;5097296;28;20414;-64
2022/05/05 00:17:11;;;;;;;14.07;9.68;;;14.00;99.90;;;;;;5098068;28;20027;-64
2022/05/05 00:19:41;;;;;;;16.15;9.73;;;14.00;99.90;;;;;;5097881;28;20047;-64
2022/05/05 00:22:07;;;;;;;15.77;10.15;;;14.00;99.90;;;;;;5098000;28;20024;-64
2022/05/05 00:24:34;;;;;;;15.05;11.32;;;14.10;99.90;;;;;;5097930;28;20038;-64
2022/05/05 00:27:00;;;;;;;22.25;11.00;;;14.00;99.90;;;;;;5097659;28;20036;-64
2022/05/05 00:29:29;;;;;;;16.83;11.43;;;14.10;99.90;;;;;;5097410;28;20039;-64
2022/05/05 00:31:55;;;;;;;14.52;11.77;;;14.00;99.90;;;;;;5097725;28;20493;-64
2022/05/05 00:34:21;;;;;;;17.90;12.10;;;14.10;99.90;;;;;;5097761;28;20032;-64
2022/05/05 00:36:47;;;;;;;16.80;11.25;;;14.00;99.90;;;;;;5097769;28;20307;-64
2022/05/05 00:39:13;;;;;;;16.30;11.82;;;14.00;99.90;;;;;;5097033;28;20061;-64
2022/05/05 00:41:47;;;;;;;18.58;12.55;;;14.10;99.90;;;;;;5097588;28;20185;-65
2022/05/05 00:44:14;;;;;;;18.58;13.88;;;14.10;99.90;;;;;;5098168;28;20042;-64
2022/05/05 00:46:40;;;;;;;24.85;14.38;;;14.00;99.90;;;;;;5097513;28;20020;-64
2022/05/05 00:49:06;;;;;;;21.15;14.30;;;14.00;99.90;;;;;;5097308;28;20044;-65
2022/05/05 00:51:32;;;;;;;19.75;13.27;;;14.00;99.90;;;;;;5097587;28;20043;-64
2022/05/05 00:53:59;;;;;;;18.35;12.15;;;13.90;99.90;;;;;;5097455;28;20081;-64
2022/05/05 00:56:26;;;;;;;17.90;11.77;;;13.80;99.90;;;;;;5096549;28;20052;-65
2022/05/05 00:58:56;;;;;;;15.50;11.45;;;13.90;99.90;;;;;;5097845;28;20406;-65
2022/05/05 01:01:23;;;;;;;17.05;12.15;;;13.90;99.90;;;;;;5097404;28;20024;-66
2022/05/05 01:03:50;;;;;;;16.52;11.07;;;14.00;99.90;;;;;;5096662;28;20093;-65
2022/05/05 01:06:16;;;;;;;16.02;11.48;;;14.00;99.90;;;;;;5097175;28;20111;-65
2022/05/05 01:08:43;;;;;;;15.30;11.18;;;14.00;99.90;;;;;;5097582;28;20050;-65
2022/05/05 01:11:09;;;;;;;16.00;11.27;;;14.00;99.90;;;;;;5096510;28;20056;-65
2022/05/05 01:13:40;;;;;;;18.15;12.13;;;14.00;99.90;;;;;;5097235;28;20028;-65
2022/05/05 01:16:10;;;;;;;14.35;10.75;;;13.90;99.90;;;;;;5097044;28;20038;-65
2022/05/05 01:18:36;;;;;;;15.43;10.88;;;14.00;99.90;;;;;;5097061;28;20035;-65
2022/05/05 01:21:02;;;;;;;15.82;10.18;;;13.90;99.90;;;;;;5079435;28;20101;-65
2022/05/05 01:23:29;;;;;;;17.55;10.60;;;13.90;99.90;;;;;;5097019;28;20273;-65
2022/05/05 01:28:45;;;;;;;13.93;9.70;;;13.80;99.90;;;;;;5097107;28;20032;-65
2022/05/05 01:31:11;;;;;;;13.52;9.98;;;13.90;99.90;;;;;;5097254;28;20307;-65
2022/05/05 01:33:38;;;;;;;19.15;10.43;;;13.80;99.90;;;;;;5097579;28;20062;-65
2022/05/05 01:36:05;;;;;;;14.07;9.50;;;13.90;99.90;;;;;;5096307;28;20028;-65
2022/05/05 01:38:39;;;;;;;13.20;9.55;;;13.90;99.90;;;;;;5096818;28;20060;-65
2022/05/05 01:41:06;;;;;;;14.43;10.32;;;13.90;99.90;;;;;;5096875;28;20028;-65
2022/05/05 01:43:32;;;;;;;14.07;9.73;;;13.80;99.90;;;;;;5096174;28;20061;-65
2022/05/05 01:45:58;;;;;;;16.52;10.35;;;13.90;99.90;;;;;;5096755;28;20028;-65
2022/05/05 01:48:24;;;;;;;14.95;10.00;;;13.90;99.90;;;;;;5096560;28;20316;-65
2022/05/05 01:50:50;;;;;;;13.07;9.98;;;14.00;99.90;;;;;;5096728;28;20055;-65
2022/05/05 01:53:16;;;;;;;19.15;10.45;;;13.90;99.90;;;;;;5095937;28;20312;-65
2022/05/05 01:55:45;;;;;;;17.63;10.77;;;13.90;99.90;;;;;;5097128;28;20040;-65
2022/05/05 01:58:11;;;;;;;15.98;10.15;;;13.80;99.90;;;;;;5096738;28;20036;-65
2022/05/05 02:00:38;;;;;;;13.40;9.80;;;13.80;99.90;;;;;;5096235;28;20090;-65
2022/05/05 02:03:12;;;;;;;15.35;9.43;;;13.80;99.90;;;;;;5096701;28;20012;-65
2022/05/05 02:05:39;;;;;;;15.98;9.70;;;13.90;99.90;;;;;;5097248;28;20047;-65
2022/05/05 02:08:05;;;;;;;14.98;10.30;;;14.00;99.90;;;;;;5096950;28;20024;-65
2022/05/05 02:10:31;;;;;;;14.48;10.20;;;13.90;99.90;;;;;;5096782;28;20038;-65
2022/05/05 02:12:58;;;;;;;14.43;9.98;;;13.90;99.90;;;;;;5096920;28;20032;-65
2022/05/05 02:15:24;;;;;;;16.13;9.48;;;13.90;99.90;;;;;;5096170;28;20055;-65
2022/05/05 02:17:51;;;;;;;15.93;10.93;;;13.90;99.90;;;;;;5096501;28;20032;-65
2022/05/05 02:20:16;;;;;;;14.05;9.73;;;13.90;99.90;;;;;;5095757;28;20028;-65
2022/05/05 02:22:42;;;;;;;13.07;9.57;;;13.90;99.90;;;;;;5095792;28;20123;-65
2022/05/05 02:25:11;;;;;;;15.00;8.70;;;13.90;99.90;;;;;;5095069;28;20029;-65
2022/05/05 02:27:51;;;;;;;13.57;9.82;;;13.90;99.90;;;;;;5096179;28;20073;-65
2022/05/05 02:30:22;;;;;;;11.82;9.13;;;13.90;99.90;;;;;;5096442;28;20074;-65
2022/05/05 02:32:49;;;;;;;14.70;9.95;;;13.80;99.90;;;;;;5096372;28;20028;-65
2022/05/05 02:35:15;;;;;;;14.00;9.60;;;13.70;99.90;;;;;;5096356;28;20493;-65
2022/05/05 02:40:26;;;;;;;15.00;10.23;;;13.90;99.90;;;;;;5099999;28;20043;-65
2022/05/05 02:42:54;;;;;;;16.10;9.93;;;13.90;99.90;;;;;;5100259;28;20028;-65
2022/05/05 02:45:19;;;;;;;14.02;10.50;;;13.90;99.90;;;;;;5099475;28;20047;-65
2022/05/05 02:47:47;;;;;;;14.68;10.07;;;13.80;99.90;;;;;;5099277;28;20020;-65
2022/05/05 02:50:14;;;;;;;13.27;9.75;;;13.90;99.90;;;;;;5099889;28;20060;-65
2022/05/05 02:52:40;;;;;;;17.40;10.75;;;13.90;99.90;;;;;;5099712;28;20116;-66
2022/05/05 02:55:07;;;;;;;15.68;10.30;;;13.80;99.90;;;;;;5100177;28;20078;-66
2022/05/05 02:57:32;;;;;;;17.42;11.55;;;13.70;99.90;;;;;;5081949;28;20031;-67
2022/05/05 02:59:58;;;;;;;17.77;11.80;;;13.50;99.90;;;;;;5100166;28;20288;-67
2022/05/05 03:02:24;;;;;;;20.67;12.73;;;13.40;99.90;;;;;;5099019;28;20103;-66
2022/05/05 03:04:50;;;;;;;21.25;13.30;;;13.20;99.90;;;;;;5099556;28;20028;-67
2022/05/05 03:07:17;;;;;;;18.75;13.00;;;13.10;99.90;;;;;;5099424;28;20331;-67
2022/05/05 03:09:43;;;;;;;19.52;12.15;;;12.90;99.90;;;;;;5098757;28;20035;-67
2022/05/05 03:12:10;;;;;;;20.35;13.18;;;12.90;99.90;;;;;;5099344;28;20123;-68
2022/05/05 03:14:37;;;;;;;18.35;12.95;;;13.10;99.90;;;;;;5099644;28;20307;-68
2022/05/05 03:17:03;;;;;;;19.75;13.45;;;13.10;99.90;;;;;;5099169;28;20036;-67
2022/05/05 03:19:29;;;;;;;22.73;13.85;;;13.30;99.90;;;;;;5098491;28;20024;-67
2022/05/05 03:21:55;;;;;;;22.15;13.13;;;13.30;99.90;;;;;;5099132;28;20032;-67
2022/05/05 03:24:21;;;;;;;23.50;15.13;;;13.30;99.90;;;;;;5099045;28;20400;-66
2022/05/05 03:26:47;;;;;;;20.15;14.32;;;13.40;99.90;;;;;;5098270;28;20048;-67
2022/05/05 03:29:13;;;;;;;22.42;14.43;;;13.40;99.90;;;;;;5098263;28;20067;-66
2022/05/05 03:31:39;;;;;;;21.35;14.35;;;13.50;99.90;;;;;;5099034;28;20304;-67
2022/05/05 03:34:05;;;;;;;20.83;14.32;;;13.30;99.90;;;;;;5098332;28;20028;-67
2022/05/05 03:36:31;;;;;;;27.10;15.68;;;13.20;99.90;;;;;;5099164;28;20411;-67
2022/05/05 03:39:00;;;;;;;22.70;14.90;;;13.20;99.90;;;;;;5098675;28;20326;-66
2022/05/05 03:41:26;;;;;;;22.25;15.00;;;13.10;99.90;;;;;;5081198;28;20043;-67
2022/05/05 03:43:52;;;;;;;23.67;15.57;;;13.10;99.90;;;;;;5099345;28;20035;-67
2022/05/05 03:46:18;;;;;;;21.90;15.10;;;13.00;99.90;;;;;;5098200;28;20028;-67
2022/05/05 03:48:44;;;;;;;22.65;14.98;;;13.10;99.90;;;;;;5097934;28;20063;-67
2022/05/05 03:51:14;;;;;;;24.30;15.55;;;13.20;99.90;;;;;;5098972;28;20326;-67
2022/05/05 03:53:40;;;;;;;23.38;14.75;;;13.20;99.90;;;;;;5098686;28;20032;-67
2022/05/05 03:56:05;;;;;;;23.83;16.05;;;13.20;99.90;;;;;;5098942;28;20089;-67
2022/05/05 03:58:32;;;;;;;24.70;15.77;;;13.30;99.90;;;;;;5097677;28;20036;-66
2022/05/05 04:01:01;;;;;;;21.13;14.75;;;13.30;99.90;;;;;;5098729;28;20043;-67
2022/05/05 04:03:33;;;;;;;23.27;15.45;;;13.30;99.90;;;;;;5098857;28;20444;-66
2022/05/05 04:06:04;;;;;;;;;;;13.30;99.90;;;;;;5098364;28;20048;-67
2022/05/05 04:08:31;;;;;;;23.80;15.13;;;13.30;99.90;;;;;;5098588;28;20298;-66
2022/05/05 04:10:57;;;;;;;27.92;16.27;;;13.40;99.90;;;;;;5097477;28;20028;-67
2022/05/05 04:13:25;;;;;;;22.20;14.73;;;13.40;99.90;;;;;;5098627;28;20058;-66
2022/05/05 04:15:52;;;;;;;22.00;14.88;;;13.40;99.90;;;;;;5098064;28;20040;-67
2022/05/05 04:18:18;;;;;;;22.73;15.70;;;13.30;99.90;;;;;;5098072;28;20036;-67
2022/05/05 04:20:44;;;;;;;24.27;15.13;;;13.40;99.90;;;;;;5097962;28;20115;-67
2022/05/05 04:23:10;;;;;;;22.17;15.63;;;13.40;99.90;;;;;;5098070;28;20089;-67
2022/05/05 04:25:44;;;;;;;24.05;15.48;;;13.40;99.90;;;;;;5098049;28;20028;-68
2022/05/05 04:28:11;;;;;;;22.30;15.10;;;13.30;99.90;;;;;;5098125;28;20313;-67
2022/05/05 04:30:39;;;;;;;21.85;14.43;;;13.10;99.90;;;;;;5097993;28;20039;-65
2022/05/05 04:33:09;;;;;;;22.55;15.23;;;13.10;99.90;;;;;;5097096;28;20028;-67
2022/05/05 04:35:36;;;;;;;23.42;16.83;;;13.20;99.90;;;;;;5097828;28;20307;-65
2022/05/05 04:38:05;;;;;;;22.67;15.27;;;13.10;99.90;;;;;;5097575;28;20312;-65
2022/05/05 04:40:35;;;;;;;22.58;15.68;;;13.20;99.90;;;;;;5097677;28;20299;-64
2022/05/05 04:43:01;;;;;;;22.88;15.48;;;13.20;99.90;;;;;;5097475;28;20048;-65
2022/05/05 04:45:27;;;;;;;22.40;15.07;;;13.30;99.90;;;;;;5096872;28;20311;-65
2022/05/05 04:47:53;;;;;;;21.52;15.13;;;13.30;99.90;;;;;;5097428;28;20043;-66
2022/05/05 04:50:18;;;;;;;21.00;14.63;;;13.10;99.90;;;;;;5097424;28;20052;-65
2022/05/05 04:52:45;;;;;;;22.33;15.48;;;13.10;99.90;;;;;;5096531;28;20144;-65
2022/05/05 04:55:10;;;;;;;22.58;16.13;;;13.30;99.90;;;;;;5097451;28;20303;-65
2022/05/05 04:57:38;;;;;;;22.80;14.93;;;13.30;99.90;;;;;;5097553;28;20036;-65
2022/05/05 05:00:05;;;;;;;22.15;15.20;;;13.20;99.90;;;;;;5097061;28;20047;-65
2022/05/05 05:02:31;;;;;;;20.50;14.10;;;13.30;99.90;;;;;;5097212;28;20028;-65
2022/05/05 05:04:57;;;;;;;25.02;15.65;;;13.30;99.90;;;;;;5097288;28;20277;-65
2022/05/05 05:07:24;;;;;;;25.05;16.27;;;13.30;99.90;;;;;;5096736;28;20269;-65
2022/05/05 05:09:50;;;;;;;22.17;14.70;;;13.30;99.90;;;;;;5097069;28;20043;-65
2022/05/05 05:12:15;;;;;;;22.95;14.20;;;13.30;99.90;;;;;;5097360;28;20126;-65
2022/05/05 05:14:41;;;;;;;22.27;14.68;;;13.30;99.90;;;;;;5097136;28;20028;-65
2022/05/05 05:17:07;;;;;;;24.20;15.13;;;13.20;99.90;;;;;;5097148;28;20024;-65
2022/05/05 05:19:33;;;;;;;23.58;15.13;;;13.00;99.90;;;;;;5097080;28;20032;-65
2022/05/05 05:21:59;;;;;;;22.48;14.77;;;12.80;99.90;;;;;;5097069;28;20024;-65
2022/05/05 05:24:25;;;;;;;22.73;14.52;;;12.70;99.90;;;;;;5096328;28;20024;-66
2022/05/05 05:26:51;;;;;;;23.83;15.05;;;12.70;99.90;;;;;;5096285;28;20088;-65
2022/05/05 05:29:16;;;;;;;25.05;15.25;;;12.70;99.90;;;;;;5096971;28;20028;-65
2022/05/05 05:31:42;;;;;;;21.25;14.55;;;12.80;99.90;;;;;;5096358;28;20085;-65
2022/05/05 05:34:08;;;;;;;26.33;15.35;;;12.90;99.90;;;;;;5097144;28;20028;-65
2022/05/05 05:36:37;;;;;;;22.23;15.40;;;12.90;99.90;;;;;;5096181;28;20036;-65
2022/05/05 05:39:03;;;;;;;18.67;14.68;;;13.00;99.90;;;;;;5096718;28;20401;-64
2022/05/05 05:41:28;;;;;;;21.95;15.00;;;13.10;99.90;;;;;;5096789;28;20042;-66
2022/05/05 05:43:54;;;;;;;22.38;15.43;;;13.20;99.90;;;;;;5097037;28;20154;-65
2022/05/05 05:46:20;;;;;;;25.90;15.00;;;13.30;99.90;;;;;;5097010;28;20043;-65
2022/05/05 05:48:46;;;;;;;21.20;15.45;;;13.30;99.90;;;;;;5096635;28;20440;-65
2022/05/05 05:51:13;;;;;;;21.23;15.00;;;13.40;99.90;;;;;;5096514;28;20032;-66
2022/05/05 05:53:38;;;;;;;22.27;15.73;;;13.40;99.90;;;;;;5096661;28;20046;-66
2022/05/05 05:56:05;;;;;;;25.50;16.05;;;13.50;99.90;;;;;;5096939;28;20048;-65
2022/05/05 05:58:31;;;;;;;24.40;15.35;;;13.50;99.90;;;;;;5097111;28;20032;-66
2022/05/05 06:00:57;;;;;;;25.98;16.52;;;13.50;99.90;;;;;;5095886;28;20399;-65
2022/05/05 06:06:07;;;;;;;30.27;16.05;;;13.50;99.90;;;;;;5096617;28;20089;-65
2022/05/05 06:08:33;;;;;;;24.75;16.70;;;13.60;99.90;;;;;;5096499;28;20028;-66
2022/05/05 06:10:59;;;;;;;30.52;17.48;;;13.80;99.90;;;;;;5096621;28;20384;-65
2022/05/05 06:13:25;;;;;;;27.63;17.40;;;14.00;99.90;;;;;;5098293;28;20032;-65
2022/05/05 06:15:50;;;;;;;26.15;17.85;;;14.00;99.90;;;;;;5100351;28;20123;-66
2022/05/05 06:18:16;;;;;;;30.10;20.15;;;14.20;99.90;;;;;;5100766;28;20055;-65
2022/05/05 06:20:42;;;;;;;22.88;14.63;;;14.00;99.90;;;;;;5099776;28;20044;-63
2022/05/05 06:23:08;;;;;;;32.20;21.35;;;14.00;99.90;;;;;;5100285;28;20028;-63
2022/05/05 06:25:34;;;;;;;34.00;21.42;;;14.10;99.90;;;;;;5100318;28;20032;-63
2022/05/05 06:28:00;;;;;;;29.15;20.45;;;14.30;99.90;;;;;;5100222;28;20385;-63
2022/05/05 06:30:25;;;;;;;38.15;22.98;;;14.60;99.90;;;;;;5100724;28;20032;-63
2022/05/05 06:32:51;;;;;;;39.45;22.73;;;14.50;99.90;;;;;;5100097;28;20032;-63
2022/05/05 06:35:17;;;;;;;34.33;24.00;;;14.40;99.90;;;;;;5100087;28;20036;-64
2022/05/05 06:37:43;;;;;;;34.55;22.60;;;14.40;99.90;;;;;;5100069;28;20039;-64
2022/05/05 06:40:09;;;;;;;37.15;24.83;;;14.80;99.90;;;;;;5099978;28;20303;-63
2022/05/05 06:42:35;;;;;;;37.90;24.58;;;15.20;99.90;;;;;;5099437;28;20036;-64
2022/05/05 06:45:01;;;;;;;34.42;23.88;;;15.40;99.90;;;;;;5100103;28;20039;-65
2022/05/05 06:47:27;;;;;;;38.30;26.20;;;15.50;99.90;;;;;;5099067;28;20370;-65
2022/05/05 06:49:53;;;;;;;38.88;25.75;;;15.60;99.90;;;;;;5099558;28;20098;-66
2022/05/05 06:52:18;;;;;;;40.05;26.85;;;15.70;99.90;;;;;;5099706;28;20062;-65
2022/05/05 06:54:48;;;;;;;42.47;28.60;;;16.00;99.90;;;;;;5099787;28;20123;-64
2022/05/05 06:57:14;;;;;;;42.53;28.33;;;16.40;99.90;;;;;;5098969;28;20024;-66
2022/05/05 06:59:40;;;;;;;44.97;30.77;;;16.50;99.90;;;;;;5098914;28;20037;-65
2022/05/05 07:02:06;;;;;;;40.58;27.90;;;16.50;99.90;;;;;;5099174;28;20039;-64
2022/05/05 07:07:36;;;;;;;48.60;31.98;;;16.60;99.90;;;;;;5040936;28;20045;-63
2022/05/05 07:12:47;;;;;;;49.45;30.25;;;16.80;99.90;;;;;;5082523;28;20044;-66
2022/05/05 07:15:13;;;;;;;49.28;32.33;;;16.70;99.90;;;;;;5098670;28;20031;-66
2022/05/05 07:17:40;;;;;;;50.70;33.53;;;16.70;99.90;;;;;;5081996;28;20043;-66
2022/05/05 07:20:09;;;;;;;48.13;33.22;;;16.80;99.90;;;;;;5099262;28;20028;-65
2022/05/05 07:22:35;;;;;;;47.22;32.05;;;16.80;99.90;;;;;;5099296;28;20039;-65
2022/05/05 07:25:03;;;;;;;50.00;31.67;;;16.90;99.90;;;;;;5097972;28;20040;-66
2022/05/05 07:27:29;;;;;;;51.78;30.70;;;17.00;99.90;;;;;;5099189;28;20057;-66
2022/05/05 07:29:55;;;;;;;49.20;32.80;;;17.00;99.90;;;;;;5099298;28;20032;-65
2022/05/05 07:32:21;;;;;;;46.97;32.58;;;17.00;99.90;;;;;;5099222;28;20054;-64
2022/05/05 07:34:46;;;;;;;47.53;30.60;;;17.10;99.90;;;;;;5099120;28;20028;-65
2022/05/05 07:37:13;;;;;;;45.35;30.10;;;17.20;99.90;;;;;;5098899;28;20089;-63
2022/05/05 07:39:41;;;;;;;45.40;29.13;;;17.40;99.90;;;;;;5098820;28;20055;-65
2022/05/05 07:42:08;;;;;;;44.25;28.85;;;17.60;99.90;;;;;;5098833;28;20028;-66
2022/05/05 07:44:36;;;;;;;43.58;28.63;;;17.80;99.90;;;;;;5098841;28;20055;-67
2022/05/05 07:47:03;;;;;;;41.45;27.75;;;17.90;99.90;;;;;;5098751;28;20291;-66
2022/05/05 07:49:28;;;;;;;38.70;26.60;;;18.10;99.90;;;;;;5081397;28;20056;-63
2022/05/05 07:51:54;;;;;;;39.30;27.05;;;18.40;99.90;;;;;;5098817;28;20426;-64
2022/05/05 07:54:36;;;;;;;39.20;25.70;;;18.40;99.90;;;;;;5098699;28;20208;-63
2022/05/05 07:57:13;;;;;;;38.60;24.17;;;18.40;99.90;;;;;;5098601;28;20032;-64
2022/05/05 07:59:40;;;;;;;35.10;23.60;;;18.40;99.90;;;;;;5098466;28;20338;-64
2022/05/05 08:02:13;;;;;;;34.40;22.27;;;18.20;99.90;;;;;;5098563;28;20459;-64
2022/05/05 08:04:39;;;;;;;32.47;22.33;;;18.40;99.90;;;;;;5098635;28;20028;-64
2022/05/05 08:07:07;;;;;;;29.85;20.80;;;18.60;99.90;;;;;;5098355;28;20032;-64
2022/05/05 08:09:33;;;;;;;34.47;21.95;;;18.70;99.90;;;;;;5097597;28;20303;-64
2022/05/05 08:11:59;;;;;;;33.80;23.77;;;18.90;99.90;;;;;;5098250;28;20061;-65
2022/05/05 08:14:28;;;;;;;33.72;24.77;;;18.90;99.90;;;;;;5097486;28;20115;-65
2022/05/05 08:16:55;;;;;;;32.05;23.50;;;18.70;99.90;;;;;;5097488;28;20031;-65
2022/05/05 08:19:21;;;;;;;33.85;23.35;;;18.90;99.90;;;;;;5097395;28;20081;-65
2022/05/05 08:21:48;;;;;;;29.48;21.60;;;19.10;99.90;;;;;;5098371;28;20269;-65
2022/05/05 08:29:49;;;;;;;29.05;20.52;;;19.30;99.90;;;;;;5098121;28;20062;-64
2022/05/05 08:32:15;;;;;;;26.50;20.40;;;18.60;99.90;;;;;;5098331;28;20074;-64
2022/05/05 08:34:44;;;;;;;29.38;20.40;;;18.90;99.90;;;;;;5097790;28;20032;-64
2022/05/05 08:37:10;;;;;;;29.13;20.80;;;19.30;99.90;;;;;;5097353;28;20153;-64
2022/05/05 08:39:36;;;;;;;28.85;21.23;;;19.70;99.90;;;;;;5097832;28;20036;-64
2022/05/05 08:42:04;;;;;;;25.92;19.52;;;19.60;99.90;;;;;;5097784;28;20032;-64
2022/05/05 08:44:29;;;;;;;26.50;19.85;;;19.40;99.90;;;;;;5097757;28;20031;-65
2022/05/05 08:46:56;;;;;;;23.70;18.50;;;19.50;99.90;;;;;;5096720;28;20093;-65
2022/05/05 08:49:29;;;;;;;26.30;18.90;;;19.50;99.90;;;;;;5097087;28;20058;-65
2022/05/05 08:51:57;;;;;;;21.58;16.77;;;19.30;99.90;;;;;;5097684;28;20391;-65
2022/05/05 08:54:25;;;;;;;30.13;19.20;;;19.10;99.90;;;;;;5097569;28;20028;-64
2022/05/05 08:56:52;;;;;;;20.33;17.02;;;19.60;99.90;;;;;;5097741;28;20036;-65
2022/05/05 08:59:19;;;;;;;22.55;17.27;;;19.80;99.90;;;;;;5096884;28;20035;-66
2022/05/05 09:01:45;;;;;;;23.92;17.25;;;19.70;99.90;;;;;;5097367;28;20146;-65
2022/05/05 09:04:11;;;;;;;23.63;18.85;;;19.80;99.90;;;;;;5097467;28;20393;-65
2022/05/05 09:06:43;;;;;;;23.05;17.45;;;20.10;99.90;;;;;;5097672;28;20035;-65
2022/05/05 09:09:29;;;;;;;23.10;16.85;;;20.20;99.90;;;;;;5097517;28;20157;-65
2022/05/05 09:12:25;;;;;;;19.10;16.05;;;20.70;99.90;;;;;;5097194;28;20342;-64
2022/05/05 09:14:55;;;;;;;24.17;17.30;;;21.00;99.90;;;;;;5076323;28;20147;-64
2022/05/05 09:17:23;;;;;;;22.95;18.38;;;21.20;99.90;;;;;;5097200;28;20093;-66
2022/05/05 09:19:51;;;;;;;23.67;18.25;;;21.20;99.90;;;;;;5097125;28;20048;-66
2022/05/05 09:22:22;;;;;;;24.90;18.60;;;20.50;99.90;;;;;;5096958;28;20051;-63
2022/05/05 09:24:51;;;;;;;25.25;18.17;;;20.70;99.90;;;;;;5097248;28;20308;-64
2022/05/05 09:27:32;;;;;;;22.42;18.17;;;21.00;99.90;;;;;;5097088;28;20052;-64
2022/05/05 09:30:14;;;;;;;21.90;18.70;;;20.80;99.90;;;;;;5097198;28;20028;-65
2022/05/05 09:32:44;;;;;;;23.07;20.53;;;18.90;99.90;;;;;;5097141;28;20376;-64
2022/05/05 09:35:15;;;;;;;21.27;19.00;;;18.50;99.90;;;;;;5096473;28;20281;-65
2022/05/05 09:37:49;;;;;;;23.20;19.25;;;19.20;99.90;;;;;;5097248;28;20032;-64
2022/05/05 09:40:25;;;;;;;22.65;18.33;;;20.20;99.90;;;;;;5096737;28;20036;-65
2022/05/05 09:42:53;;;;;;;22.35;17.75;;;20.60;99.90;;;;;;5096986;28;20036;-65
2022/05/05 09:45:24;;;;;;;22.27;17.77;;;19.70;99.90;;;;;;5097103;28;20380;-65
2022/05/05 09:48:01;;;;;;;21.23;16.92;;;19.70;99.90;;;;;;5098626;28;20115;-64
2022/05/05 09:50:29;;;;;;;19.73;16.10;;;20.60;99.90;;;;;;5100236;28;20326;-65
2022/05/05 09:58:39;;;;;;;19.45;15.63;;;20.70;99.90;;;;;;5100822;28;20302;-65
2022/05/05 10:01:10;;;;;;;17.38;14.75;;;20.60;99.90;;;;;;5101338;28;20059;-65
2022/05/05 10:06:34;;;;;;;22.88;20.48;;;20.90;99.90;;;;;;5100753;28;20035;-65
2022/05/05 10:09:08;;;;;;;25.10;22.40;;;21.00;99.90;;;;;;5100288;28;20296;-65
2022/05/05 10:11:38;;;;;;;24.98;21.92;;;19.90;99.90;;;;;;5100577;28;20063;-65
2022/05/05 10:14:06;;;;;;;23.67;21.10;;;19.10;99.90;;;;;;5100528;28;20403;-65
2022/05/05 10:16:32;;;;;;;21.80;19.35;;;19.60;99.90;;;;;;5100561;28;20110;-65
2022/05/05 10:19:07;;;;;;;23.95;21.45;;;20.10;99.90;;;;;;5100188;28;20055;-65
2022/05/05 10:21:52;;;;;;;20.92;18.65;;;19.90;99.90;;;;;;5100372;28;20036;-65
2022/05/05 10:24:29;;;;;;;19.90;17.75;;;20.00;99.90;;;;;;5100688;28;20309;-65
2022/05/05 10:26:57;;;;;;;20.35;18.25;;;20.90;99.90;;;;;;5100275;28;20408;-65
2022/05/05 10:29:40;;;;;;;23.20;20.80;;;21.50;99.90;;;;;;5100228;28;20114;-64
2022/05/05 10:32:26;;;;;;;19.98;18.05;;;22.00;99.90;;;;;;5100230;28;20036;-65
2022/05/05 10:35:09;;;;;;;20.75;18.55;;;22.20;99.90;;;;;;5100578;28;20050;-67
2022/05/05 10:37:37;;;;;;;22.30;19.92;;;22.50;99.90;;;;;;5100535;28;20024;-64
2022/05/05 10:40:06;;;;;;;22.20;19.98;;;23.00;99.90;;;;;;5099903;28;20052;-65
2022/05/05 10:42:33;;;;;;;18.70;16.75;;;23.30;99.90;;;;;;5100071;28;20095;-66
2022/05/05 10:45:10;;;;;;;20.00;16.67;;;23.40;99.90;;;;;;5100094;28;20437;-65
2022/05/05 10:47:57;;;;;;;17.83;16.02;;;24.00;99.90;;;;;;5100587;28;20028;-64
2022/05/05 10:50:46;;;;;;;18.25;16.33;;;24.60;99.90;;;;;;5099068;28;20040;-65
2022/05/05 10:53:40;;;;;;;18.13;16.20;;;24.70;99.90;;;;;;5100392;28;20431;-65
2022/05/05 10:56:27;;;;;;;14.20;12.80;;;24.40;99.90;;;;;;5100189;28;20043;-65
2022/05/05 10:58:59;;;;;;;16.42;14.77;;;24.90;99.90;;;;;;5086524;28;20047;-66
2022/05/05 11:01:26;;;;;;;16.00;14.20;;;24.30;99.90;;;;;;5100181;28;20035;-65
2022/05/05 11:04:17;;;;;;;20.17;17.83;;;24.40;99.90;;;;;;5099592;28;20158;-65
2022/05/05 11:06:45;;;;;;;18.73;16.77;;;24.60;99.90;;;;;;5099227;28;20042;-63
2022/05/05 11:09:33;;;;;;;17.85;16.05;;;24.30;99.90;;;;;;5099547;28;20104;-65
2022/05/05 11:12:21;;;;;;;17.90;16.00;;;24.20;99.90;;;;;;5099702;28;20098;-66
2022/05/05 11:23:48;;;;;;;15.95;14.40;;;23.30;99.90;;;;;;5099327;28;20379;-65
2022/05/05 11:26:20;;;;;;;16.20;13.18;;;23.20;99.90;;;;;;5098408;28;20024;-66
2022/05/05 11:28:48;;;;;;;15.27;13.88;;;23.60;99.90;;;;;;5099229;28;20039;-66
2022/05/05 11:31:17;;;;;;;13.93;12.52;;;23.70;99.90;;;;;;5099085;28;20292;-65
2022/05/05 11:33:50;;;;;;;11.55;10.40;;;24.10;99.90;;;;;;5099024;28;20083;-65
2022/05/05 11:36:19;;;;;;;13.93;12.50;;;25.20;99.90;;;;;;5099505;28;20028;-65
2022/05/05 11:38:45;;;;;;;12.60;11.40;;;26.00;99.90;;;;;;5098808;28;20020;-66
2022/05/05 11:41:11;;;;;;;12.77;11.57;;;26.50;99.90;;;;;;5098947;28;20036;-65
2022/05/05 11:46:21;;;;;;;12.32;10.13;;;26.70;99.50;;;;;;5099108;28;20438;-65
2022/05/05 11:48:56;;;;;;;12.38;11.07;;;27.20;99.20;;;;;;5099064;28;20040;-65
2022/05/05 11:51:27;;;;;;;10.98;9.55;;;27.00;97.10;;;;;;5099002;28;20418;-65
2022/05/05 11:54:02;;;;;;;12.73;11.52;;;27.10;97.50;;;;;;5098660;28;20040;-64
2022/05/05 11:56:28;;;;;;;12.55;11.25;;;27.80;95.20;;;;;;5098627;28;20032;-65
2022/05/05 12:01:40;;;;;;;11.00;9.80;;;29.20;93.40;;;;;;5098918;28;20069;-64
2022/05/05 12:04:08;;;;;;;9.40;8.23;;;29.20;92.80;;;;;;5097675;28;20464;-65
2022/05/05 12:06:38;;;;;;;11.32;10.13;;;29.80;92.70;;;;;;5098403;28;20448;-65
2022/05/05 12:09:08;;;;;;;12.50;11.25;;;30.50;91.20;;;;;;5098335;28;20028;-65
2022/05/05 12:11:35;;;;;;;13.85;12.20;;;29.00;91.20;;;;;;5097649;28;20032;-65
2022/05/05 12:14:06;;;;;;;13.20;11.77;;;27.50;91.30;;;;;;5098795;28;20124;-65
2022/05/05 12:16:37;;;;;;;14.80;11.77;;;26.70;92.50;;;;;;5098827;28;20046;-64
2022/05/05 12:19:18;;;;;;;14.63;12.88;;;26.50;92.70;;;;;;5098060;28;20118;-64
2022/05/05 12:21:54;;;;;;;12.90;11.57;;;26.10;93.10;;;;;;5098138;28;20024;-65
2022/05/05 12:24:22;;;;;;;15.45;12.00;;;25.60;93.70;;;;;;5098155;28;20028;-64
2022/05/05 12:26:49;;;;;;;11.70;10.50;;;25.00;94.60;;;;;;5098354;28;20028;-65
2022/05/05 12:29:17;;;;;;;12.90;11.60;;;24.40;95.60;;;;;;5097892;28;20051;-65
2022/05/05 12:31:55;;;;;;;16.70;13.50;;;24.00;96.40;;;;;;5098256;28;20051;-63
2022/05/05 12:34:25;;;;;;;15.10;13.15;;;23.80;96.80;;;;;;5097884;28;20056;-63
2022/05/05 12:37:06;;;;;;;15.73;13.15;;;23.30;97.60;;;;;;5097179;28;20044;-64
2022/05/05 12:39:47;;;;;;;14.82;13.13;;;22.80;98.60;;;;;;5098215;28;20395;-65
2022/05/05 12:42:14;;;;;;;13.77;11.90;;;22.30;99.70;;;;;;5097805;28;20028;-65
2022/05/05 12:44:45;;;;;;;12.85;11.52;;;22.20;99.90;;;;;;5097672;28;20028;-65
2022/05/05 12:47:11;;;;;;;19.35;13.80;;;22.10;99.90;;;;;;5097733;28;20038;-64
2022/05/05 12:49:38;;;;;;;16.30;13.70;;;22.10;99.90;;;;;;5097857;28;20044;-64
2022/05/05 12:52:06;;;;;;;13.52;11.93;;;22.00;99.90;;;;;;5097662;28;20333;-65
2022/05/05 13:00:05;;;;;;;16.88;12.30;;;21.70;99.90;;;;;;5097376;28;20032;-62
2022/05/05 13:02:31;;;;;;;15.60;12.68;;;21.70;99.90;;;;;;5097463;28;20437;-64
2022/05/05 13:04:57;;;;;;;15.90;13.55;;;21.50;99.90;;;;;;5096685;28;20425;-63
2022/05/05 13:07:24;;;;;;;16.70;12.73;;;21.50;99.90;;;;;;5096875;28;20028;-64
2022/05/05 13:09:51;;;;;;;14.70;11.90;;;21.50;99.90;;;;;;5097306;28;20039;-65
2022/05/05 13:12:17;;;;;;;16.40;12.63;;;21.40;99.90;;;;;;5097253;28;20111;-65
2022/05/05 13:14:42;;;;;;;14.73;12.77;;;21.40;99.90;;;;;;5097316;28;20051;-65
2022/05/05 13:17:08;;;;;;;15.70;13.27;;;21.40;99.90;;;;;;5096421;28;20032;-64
2022/05/05 13:19:34;;;;;;;16.25;12.75;;;21.30;99.90;;;;;;5097084;28;20300;-65
2022/05/05 13:22:03;;;;;;;15.82;13.00;;;21.40;99.90;;;;;;5097337;28;20061;-64
2022/05/05 13:24:29;;;;;;;13.50;12.02;;;21.50;99.90;;;;;;5097591;28;20032;-65
2022/05/05 13:26:58;;;;;;;16.50;14.27;;;21.50;99.90;;;;;;5097000;28;20107;-64